Columbus, Ohio
Traffic Map
Current Weather Conditions
Columbus, Ohio
Overcast
Overcast
-3°
Feels Like: -7°
Wind Chill: -7° Ceiling: 2600
Heat Index: -3° Visibility: 10mi
Dew Point: -7° Wind: 8mph
Humidity: 72% Direction: 280° (W)
Pressure: 30.24in Gusts: 0mph
Raw Report DataKCMH 180651Z 28007KT 10SM OVC026 M03/M07 A3024 RMK AO2 SLP249 T10281072
Traffic Incident Summary
Active as of:
Severity:
Category:
InformationThere was an issue retrieving the traffic information for this location. Please try a different location or try again shortly.
Advertisements
Track Severe Weather on mobile